Time;durP1;ratioP1;P1;durP2;ratioP2;P2;SDS_P1;SDS_P2;PMS_P1;PMS_P2;Temp;Humidity;BMP_temperature;BMP_pressure;BME280_temperature;BME280_humidity;BME280_pressure;Samples;Min_cycle;Max_cycle;Signal;HPM_P1;HPM_P2
2021/03/26 00:01:25;;;;;;;45.92;25.88;;;;;;;21.76;27.76;99704.91;1756108;79;21134;-14
2021/03/26 00:03:54;;;;;;;43.83;25.65;;;;;;;21.77;27.77;99709.31;1751855;80;21159;-12
2021/03/26 00:06:30;;;;;;;45.20;26.77;;;;;;;21.78;27.78;99706.13;1772976;79;21526;-16
2021/03/26 00:08:58;;;;;;;42.78;25.25;;;;;;;21.78;27.78;99709.66;1773172;79;21177;-16
2021/03/26 00:11:29;;;;;;;47.45;25.95;;;;;;;21.78;27.82;99708.31;1708575;81;21155;-15
2021/03/26 00:13:58;;;;;;;45.10;25.75;;;;;;;21.80;27.82;99709.54;1757218;79;21126;-14
2021/03/26 00:16:27;;;;;;;42.80;24.50;;;;;;;21.80;27.84;99713.06;1695326;83;21178;-16
2021/03/26 00:18:55;;;;;;;44.03;25.30;;;;;;;21.81;27.86;99716.11;1751606;79;22530;-14
2021/03/26 00:21:23;;;;;;;37.85;24.77;;;;;;;21.81;27.85;99712.09;1703953;82;21190;-16
2021/03/26 00:23:51;;;;;;;45.00;25.32;;;;;;;21.82;27.88;99712.48;1768038;79;21189;-15
2021/03/26 00:26:19;;;;;;;42.50;25.48;;;;;;;21.82;27.88;99715.16;1720375;80;21216;-16
2021/03/26 00:28:47;;;;;;;39.48;25.82;;;;;;;21.83;27.91;99715.50;1732438;79;21210;-16
2021/03/26 00:31:15;;;;;;;41.63;26.17;;;;;;;21.84;27.90;99713.20;1760482;79;21194;-14
2021/03/26 00:33:43;;;;;;;39.78;24.72;;;;;;;21.85;27.95;99717.56;1760407;79;21114;-17
2021/03/26 00:36:12;;;;;;;40.08;25.23;;;;;;;21.87;27.95;99714.77;1767031;79;21178;-16
2021/03/26 00:38:40;;;;;;;38.10;23.98;;;;;;;21.87;27.96;99714.30;1715390;82;21221;-17
2021/03/26 00:41:07;;;;;;;39.80;24.85;;;;;;;21.88;27.99;99717.33;1753127;79;21170;-14
2021/03/26 00:43:35;;;;;;;42.40;25.30;;;;;;;21.88;27.99;99710.63;1716805;81;21268;-16
2021/03/26 00:46:02;;;;;;;42.03;24.10;;;;;;;21.89;28.00;99714.19;1773157;80;21625;-18
2021/03/26 00:48:33;;;;;;;39.63;24.27;;;;;;;21.88;28.02;99710.63;1761096;79;21123;-14
2021/03/26 00:51:01;;;;;;;40.52;24.43;;;;;;;21.89;28.04;99713.69;1694351;82;21288;-15
2021/03/26 00:53:35;;;;;;;36.33;24.18;;;;;;;21.90;28.07;99714.53;1759115;79;21036;-15
2021/03/26 00:56:05;;;;;;;38.65;24.63;;;;;;;21.92;28.06;99718.44;1766925;79;21208;-14
2021/03/26 00:58:34;;;;;;;38.67;24.10;;;;;;;21.92;28.06;99718.44;1770254;79;21125;-15
2021/03/26 01:01:02;;;;;;;40.90;24.20;;;;;;;21.92;28.09;99717.09;1762561;80;21117;-15
2021/03/26 01:03:31;;;;;;;38.13;24.00;;;;;;;21.92;28.09;99717.94;1770012;79;21221;-16
2021/03/26 01:06:05;;;;;;;38.60;22.67;;;;;;;21.92;28.13;99719.77;1752404;80;21154;-14
2021/03/26 01:08:33;;;;;;;39.63;24.07;;;;;;;21.93;28.14;99716.13;1763841;79;21169;-15
2021/03/26 01:11:21;;;;;;;43.68;24.87;;;;;;;21.93;28.15;99713.45;1726896;79;21200;-18
2021/03/26 01:13:50;;;;;;;38.42;24.32;;;;;;;21.96;28.17;99722.59;1738115;79;21143;-16
2021/03/26 01:16:21;;;;;;;37.80;24.00;;;;;;;21.95;28.15;99718.20;1746917;79;22098;-15
2021/03/26 01:18:50;;;;;;;39.05;23.50;;;;;;;21.95;28.19;99722.22;1740361;80;21114;-14
2021/03/26 01:21:22;;;;;;;37.93;23.70;;;;;;;21.95;28.21;99717.70;1737472;79;21169;-16
2021/03/26 01:23:49;;;;;;;40.03;24.15;;;;;;;21.95;28.25;99718.20;1761015;79;21221;-15
2021/03/26 01:26:17;;;;;;;38.75;22.95;;;;;;;21.96;28.23;99721.25;1740361;80;21173;-15
2021/03/26 01:28:59;;;;;;;37.13;22.87;;;;;;;22.00;28.26;99720.02;1848199;75;22988;-14
2021/03/26 01:31:31;;;;;;;35.95;22.82;;;;;;;21.97;28.27;99725.63;1852849;76;21192;-14
2021/03/26 01:34:03;;;;;;;38.28;24.15;;;;;;;21.97;28.30;99727.83;1825028;76;21809;-17
2021/03/26 01:36:33;;;;;;;40.33;23.45;;;;;;;21.97;28.30;99723.81;1846213;77;21144;-16
2021/03/26 01:39:04;;;;;;;40.85;24.30;;;;;;;21.98;28.34;99727.34;1848852;77;21611;-13
2021/03/26 01:41:42;;;;;;;33.23;22.30;;;;;;;21.98;28.34;99726.84;1778590;79;21160;-17
2021/03/26 01:44:13;;;;;;;37.10;23.15;;;;;;;21.99;28.34;99734.37;1756695;80;21201;-14
2021/03/26 01:46:41;;;;;;;36.13;23.10;;;;;;;21.99;28.38;99731.23;1784425;79;21322;-15
2021/03/26 01:49:11;;;;;;;37.58;23.77;;;;;;;22.00;28.39;99729.41;1780309;79;21636;-14
2021/03/26 01:51:45;;;;;;;37.65;24.05;;;;;;;22.00;28.39;99736.09;1784306;80;21240;-13
2021/03/26 01:54:16;;;;;;;39.90;23.12;;;;;;;22.01;28.38;99735.98;1744399;79;21163;-17
2021/03/26 01:56:46;;;;;;;37.63;22.57;;;;;;;22.02;28.42;99732.80;1776176;79;21179;-17
2021/03/26 01:59:19;;;;;;;33.28;22.10;;;;;;;22.02;28.42;99732.80;1767491;78;21941;-13
2021/03/26 02:01:51;;;;;;;35.70;22.22;;;;;;;22.04;28.44;99738.89;1748620;80;22275;-14
2021/03/26 02:04:40;;;;;;;38.47;23.63;;;;;;;22.02;28.44;99732.80;1758526;79;21152;-15
2021/03/26 02:07:28;;;;;;;37.13;22.20;;;;;;;22.03;28.45;99735.86;1777149;80;21585;-13
2021/03/26 02:09:56;;;;;;;35.33;22.65;;;;;;;22.04;28.49;99734.87;1790783;79;21126;-17
2021/03/26 02:12:27;;;;;;;35.25;22.02;;;;;;;22.04;28.50;99736.20;1781760;79;21201;-14
2021/03/26 02:15:00;;;;;;;37.03;21.90;;;;;;;22.03;28.52;99736.70;1751317;79;21617;-16
2021/03/26 02:17:32;;;;;;;36.10;22.20;;;;;;;22.02;28.55;99734.14;1778938;78;21129;-16
2021/03/26 02:20:17;;;;;;;35.17;21.57;;;;;;;22.02;28.55;99740.38;1747018;79;21166;-16
2021/03/26 02:22:45;;;;;;;35.75;22.32;;;;;;;22.04;28.58;99740.23;1755626;80;21185;-14
2021/03/26 02:25:16;;;;;;;33.58;22.00;;;;;;;22.04;28.57;99740.23;1745438;80;21188;-15
2021/03/26 02:27:43;;;;;;;39.00;23.87;;;;;;;22.05;28.60;99743.28;1767104;80;21197;-15
2021/03/26 02:30:17;;;;;;;35.13;22.05;;;;;;;22.05;28.60;99741.95;1728165;81;21200;-14
2021/03/26 02:32:47;;;;;;;35.48;21.57;;;;;;;22.06;28.60;99740.98;1748881;80;21120;-16
2021/03/26 02:35:25;;;;;;;35.05;21.95;;;;;;;22.05;28.60;99739.27;1784417;79;21181;-14
2021/03/26 02:38:08;;;;;;;36.33;22.17;;;;;;;22.08;28.62;99747.06;1779255;79;21157;-14
2021/03/26 02:40:59;;;;;;;33.85;21.77;;;;;;;22.06;28.63;99740.98;1805884;77;21200;-17
2021/03/26 02:43:50;;;;;;;36.40;22.27;;;;;;;22.06;28.64;99741.83;1804733;77;21124;-14
2021/03/26 02:46:33;;;;;;;34.88;22.10;;;;;;;22.08;28.66;99747.06;1801821;77;21157;-16
2021/03/26 02:49:20;;;;;;;35.58;21.90;;;;;;;22.07;28.67;99736.84;1806539;77;21612;-13
2021/03/26 02:52:03;;;;;;;32.67;21.60;;;;;;;22.07;28.69;99743.55;1787720;77;21940;-14
2021/03/26 02:54:45;;;;;;;34.95;21.35;;;;;;;22.08;28.73;99742.55;1808467;77;21215;-16
2021/03/26 02:57:40;;;;;;;37.40;23.80;;;;;;;22.11;28.75;99744.16;1787283;78;32478;-14
2021/03/26 03:00:29;;;;;;;35.25;20.72;;;;;;;22.06;28.78;99743.66;1777587;79;21109;-16
2021/03/26 03:02:59;;;;;;;34.18;21.52;;;;;;;22.09;28.76;99740.75;1734475;80;21200;-13
2021/03/26 03:05:34;;;;;;;30.45;21.40;;;;;;;22.11;28.75;99746.83;1747608;80;21221;-14
2021/03/26 03:08:18;;;;;;;37.93;21.33;;;;;;;22.13;28.79;99749.39;1762127;80;21188;-14
2021/03/26 03:11:20;;;;;;;34.40;23.70;;;;;;;22.16;28.78;99746.48;1798809;77;27561;-17
2021/03/26 03:14:27;;;;;;;37.03;21.73;;;;;;;22.11;28.81;99756.21;1745433;78;21181;-15
2021/03/26 03:17:07;;;;;;;33.60;21.42;;;;;;;22.15;28.78;99753.64;1764265;79;21201;-17
2021/03/26 03:19:59;;;;;;;33.90;21.82;;;;;;;22.15;28.81;99760.34;1768982;80;21117;-15
2021/03/26 03:22:33;;;;;;;32.00;20.77;;;;;;;22.15;28.81;99763.02;1741817;78;21169;-15
2021/03/26 03:25:14;;;;;;;32.53;20.85;;;;;;;22.15;28.84;99772.40;1758737;80;21157;-17
2021/03/26 03:27:56;;;;;;;33.45;21.93;;;;;;;22.16;28.86;99775.95;1749106;78;21233;-15
2021/03/26 03:30:49;;;;;;;33.25;20.82;;;;;;;22.15;28.87;99773.73;1725456;82;21904;-13
2021/03/26 03:33:30;;;;;;;33.33;21.52;;;;;;;22.14;28.90;99773.39;1701776;83;21192;-14
2021/03/26 03:36:05;;;;;;;32.20;21.17;;;;;;;22.14;28.92;99781.43;1727497;80;21666;-17
2021/03/26 03:39:03;;;;;;;34.27;20.75;;;;;;;22.14;28.94;99786.79;1721795;81;21226;-14
2021/03/26 03:42:40;;;;;;;29.72;20.20;;;;;;;22.14;28.95;99785.91;1699686;82;21152;-17
2021/03/26 03:45:20;;;;;;;31.00;20.00;;;;;;;22.13;28.96;99785.08;1698382;82;21218;-15
2021/03/26 03:47:54;;;;;;;31.48;20.90;;;;;;;22.14;29.00;99789.47;1712713;81;21189;-16
2021/03/26 03:50:34;;;;;;;32.25;20.57;;;;;;;22.13;29.02;99790.43;1711452;81;21211;-15
2021/03/26 03:53:38;;;;;;;35.90;22.13;;;;;;;22.13;29.02;99792.27;1703208;82;21211;-17
2021/03/26 03:56:17;;;;;;;40.43;23.67;;;;;;;22.13;29.07;99787.75;1688804;83;21559;-15
2021/03/26 03:58:52;;;;;;;37.67;22.37;;;;;;;22.14;28.94;99789.94;1709790;81;21726;-17
2021/03/26 04:01:46;;;;;;;36.42;22.27;;;;;;;22.11;28.48;99789.70;1675302;83;21154;-17
2021/03/26 04:04:45;;;;;;;44.00;22.98;;;;;;;22.10;28.28;99789.82;1822229;77;22767;-14
2021/03/26 04:07:24;;;;;;;36.45;23.85;;;;;;;22.02;28.17;99791.75;1744516;79;21231;-16
2021/03/26 04:09:57;;;;;;;40.63;23.62;;;;;;;21.97;28.06;99787.23;1786964;79;21206;-14
2021/03/26 04:12:30;;;;;;;40.70;24.70;;;;;;;21.94;27.97;99786.13;1712605;82;21254;-14
2021/03/26 04:15:21;;;;;;;40.43;26.07;;;;;;;21.89;27.83;99786.02;1723362;81;21165;-14
2021/03/26 04:18:11;;;;;;;43.85;26.42;;;;;;;21.87;27.59;99786.63;1710598;82;21127;-15
2021/03/26 04:21:09;;;;;;;46.15;26.12;;;;;;;21.88;27.46;99786.98;1809034;76;22806;-17
2021/03/26 04:23:42;;;;;;;45.83;26.25;;;;;;;21.84;27.53;99785.52;1737488;81;21180;-14
2021/03/26 04:26:17;;;;;;;44.63;27.62;;;;;;;21.83;27.64;99789.66;1719943;81;21214;-17
2021/03/26 04:29:28;;;;;;;45.45;29.45;;;;;;;21.86;28.33;99794.28;1799357;77;27934;-14
2021/03/26 04:32:09;;;;;;;46.35;28.02;;;;;;;21.82;28.09;99795.97;1766584;78;21233;-13
2021/03/26 04:34:41;;;;;;;42.95;26.07;;;;;;;21.85;27.81;99795.25;1707736;83;21381;-17
2021/03/26 04:37:31;;;;;;;41.65;26.57;;;;;;;21.91;27.66;99802.47;1703900;81;21213;-13
2021/03/26 04:40:18;;;;;;;42.00;26.90;;;;;;;21.92;27.64;99804.16;1718821;81;21073;-15
2021/03/26 04:43:06;;;;;;;42.17;25.50;;;;;;;21.96;27.34;99801.63;1715498;81;21140;-14
2021/03/26 04:45:54;;;;;;;44.38;26.27;;;;;;;21.99;27.35;99808.06;1709717;82;21014;-14
2021/03/26 04:49:03;;;;;;;46.23;26.52;;;;;;;22.03;27.27;99809.05;1675884;81;22022;-14
2021/03/26 04:51:44;;;;;;;42.83;26.23;;;;;;;22.06;27.16;99809.31;1623959;86;21255;-16
2021/03/26 04:55:12;;;;;;;43.40;26.12;;;;;;;22.13;26.86;99806.51;1840143;76;22801;-14
2021/03/26 04:58:02;;;;;;;41.75;25.85;;;;;;;22.13;26.61;99814.55;1813600;78;21149;-15
2021/03/26 05:00:49;;;;;;;44.93;26.02;;;;;;;22.18;26.57;99816.38;1806459;78;22787;-16
2021/03/26 05:03:30;;;;;;;42.25;26.37;;;;;;;22.17;26.70;99827.22;1717069;81;21076;-16
2021/03/26 05:06:07;;;;;;;46.60;25.60;;;;;;;22.15;26.59;99834.03;1696557;83;21151;-16
2021/03/26 05:08:38;;;;;;;41.83;25.65;;;;;;;22.14;26.64;99826.98;1723241;83;21097;-14
2021/03/26 05:11:29;;;;;;;44.85;25.97;;;;;;;22.13;26.73;99827.95;1637357;86;21219;-18
2021/03/26 05:14:01;;;;;;;40.38;24.57;;;;;;;22.12;26.63;99824.89;1707106;83;21181;-17
2021/03/26 05:17:19;;;;;;;43.48;24.67;;;;;;;22.14;26.66;99818.95;1818231;76;22763;-15
2021/03/26 05:20:07;;;;;;;45.00;23.83;;;;;;;22.12;26.52;99834.27;1777608;79;21200;-17
2021/03/26 05:22:58;;;;;;;41.10;22.02;;;;;;;22.12;26.45;99828.91;1766590;79;21096;-14
2021/03/26 05:25:35;;;;;;;44.35;22.80;;;;;;;22.11;26.39;99829.90;1804074;77;21057;-13
2021/03/26 05:28:24;;;;;;;37.45;21.37;;;;;;;22.11;25.99;99835.27;1796724;79;21134;-17
2021/03/26 05:30:54;;;;;;;38.40;21.50;;;;;;;22.10;25.60;99833.54;1804100;78;21109;-14
2021/03/26 05:33:41;;;;;;;34.35;19.87;;;;;;;22.09;25.47;99827.84;1795136;77;21164;-17
2021/03/26 05:36:20;;;;;;;34.15;19.10;;;;;;;22.09;25.22;99839.89;1768424;79;21132;-16
2021/03/26 05:39:10;;;;;;;32.65;18.17;;;;;;;22.08;25.25;99840.85;1802307;78;20976;-14
2021/03/26 05:42:31;;;;;;;29.92;17.37;;;;;;;22.08;25.05;99842.19;1807544;77;21576;-13
2021/03/26 05:45:21;;;;;;;31.17;17.48;;;;;;;22.05;24.68;99837.06;1801279;79;21640;-16
2021/03/26 05:48:42;;;;;;;27.52;16.75;;;;;;;22.05;25.06;99835.73;1773270;79;21077;-14
2021/03/26 05:51:49;;;;;;;27.60;16.97;;;;;;;22.10;25.45;99845.59;1790783;77;21194;-15
2021/03/26 05:54:33;;;;;;;27.70;16.50;;;;;;;22.16;25.68;99850.49;1804648;77;21203;-16
2021/03/26 05:57:31;;;;;;;30.55;18.25;;;;;;;22.28;25.92;99847.38;1743792;79;28018;-14
2021/03/26 06:00:42;;;;;;;28.17;16.73;;;;;;;22.32;26.05;99853.34;1735574;80;21141;-15
2021/03/26 06:03:57;;;;;;;28.42;16.37;;;;;;;22.45;26.13;99860.80;1729224;82;21342;-16
2021/03/26 06:06:56;;;;;;;24.70;16.05;;;;;;;22.54;26.19;99864.07;1745677;82;21178;-14
2021/03/26 06:10:04;;;;;;;25.15;15.13;;;;;;;22.61;26.22;99859.95;1704287;82;21140;-15
2021/03/26 06:13:34;;;;;;;23.40;14.87;;;;;;;22.68;26.34;99855.42;1737968;82;21184;-17
2021/03/26 06:16:45;;;;;;;22.20;14.63;;;;;;;22.73;26.34;99862.61;1727274;80;21109;-14
2021/03/26 06:19:56;;;;;;;23.10;14.58;;;;;;;22.78;26.46;99864.47;1605402;87;22097;-16
2021/03/26 06:23:48;;;;;;;22.60;14.95;;;;;;;22.84;26.59;99865.79;1830207;76;22879;-15
2021/03/26 06:26:41;;;;;;;23.50;14.25;;;;;;;22.83;26.69;99862.27;1737760;81;21126;-18
2021/03/26 06:29:40;;;;;;;19.82;13.43;;;;;;;22.88;26.76;99863.21;1697206;82;22022;-15
2021/03/26 06:32:38;;;;;;;23.70;13.78;;;;;;;22.88;24.95;99858.72;1766304;80;21495;-18
2021/03/26 06:35:29;;;;;;;20.12;13.58;;;;;;;22.85;25.23;99862.98;1745520;81;21153;-15
2021/03/26 06:38:15;;;;;;;24.57;13.90;;;;;;;22.86;25.78;99860.65;1733586;80;21218;-17
2021/03/26 06:41:04;;;;;;;26.30;14.50;;;;;;;22.92;26.00;99858.82;1614195;87;22113;-15
2021/03/26 06:44:06;;;;;;;20.97;12.68;;;;;;;22.99;26.09;99855.16;1703500;81;22256;-14
2021/03/26 06:46:50;;;;;;;21.02;12.45;;;;;;;23.07;26.25;99858.61;1740040;80;21241;-19
2021/03/26 06:49:37;;;;;;;19.15;12.73;;;;;;;23.16;26.38;99864.55;1713070;82;21131;-22
2021/03/26 06:52:48;;;;;;;19.30;11.93;;;;;;;23.23;26.63;99869.77;1754528;80;21133;-14
2021/03/26 06:55:36;;;;;;;19.70;12.40;;;;;;;23.29;26.74;99859.88;1769061;79;21179;-15
2021/03/26 06:58:52;;;;;;;19.45;12.28;;;;;;;23.37;26.78;99865.47;1753169;78;21196;-15
2021/03/26 07:02:05;;;;;;;17.75;12.18;;;;;;;23.45;26.74;99859.95;1748876;79;21453;-18
2021/03/26 07:05:13;;;;;;;17.87;11.97;;;;;;;23.54;26.73;99861.88;1745634;80;21246;-14
2021/03/26 07:08:21;;;;;;;17.55;12.33;;;;;;;23.60;26.70;99854.63;1707702;82;22095;-14
2021/03/26 07:11:18;;;;;;;16.87;12.33;;;;;;;23.65;26.71;99860.47;1750144;80;21132;-13
2021/03/26 07:14:11;;;;;;;17.27;11.75;;;;;;;23.73;26.70;99866.05;1721429;80;21157;-15
2021/03/26 07:17:28;;;;;;;18.67;12.00;;;;;;;23.82;26.66;99864.95;1922129;73;23228;-15
2021/03/26 07:20:25;;;;;;;17.85;11.85;;;;;;;23.83;26.67;99870.20;1874003;74;21189;-14
2021/03/26 07:23:33;;;;;;;25.17;12.73;;;;;;;23.88;26.64;99864.45;1875307;75;21261;-16
2021/03/26 07:26:39;;;;;;;18.73;11.60;;;;;;;23.93;26.75;99864.91;1908795;74;21118;-18
2021/03/26 07:29:57;;;;;;;22.42;12.28;;;;;;;24.02;26.82;99864.10;1870603;74;21042;-15
2021/03/26 07:32:50;;;;;;;56.90;26.48;;;;;;;24.15;27.01;99863.08;1842896;75;21041;-15
2021/03/26 07:35:42;;;;;;;36.10;15.72;;;;;;;24.19;25.12;99859.13;1869305;74;21177;-15
2021/03/26 07:38:41;;;;;;;22.62;13.28;;;;;;;24.03;21.91;99868.52;1907560;74;21193;-16
2021/03/26 07:41:48;;;;;;;25.52;14.00;;;;;;;23.80;20.75;99877.64;1867468;75;21166;-16
2021/03/26 07:44:39;;;;;;;29.37;14.00;;;;;;;23.56;21.01;99880.91;1814435;77;21136;-17
2021/03/26 07:47:44;;;;;;;22.93;12.45;;;;;;;23.45;21.93;99887.67;1789928;78;21580;-13
2021/03/26 07:50:57;;;;;;;32.88;12.55;;;;;;;23.37;22.16;99882.92;1779015;77;21609;-14
2021/03/26 07:54:07;;;;;;;23.62;12.23;;;;;;;23.32;22.07;99880.27;1728673;80;21230;-13
2021/03/26 07:57:20;;;;;;;17.82;11.38;;;;;;;23.23;21.69;99887.22;1878889;74;21132;-15
2021/03/26 08:00:23;;;;;;;19.85;11.25;;;;;;;23.13;22.36;99891.63;1814993;75;21136;-16
2021/03/26 08:03:22;;;;;;;19.57;10.03;;;;;;;23.09;22.92;99892.38;1872418;74;21180;-16
2021/03/26 08:06:34;;;;;;;17.57;11.38;;;;;;;23.08;22.29;99888.00;1878096;74;21160;-16
2021/03/26 08:09:32;;;;;;;18.65;10.78;;;;;;;23.08;22.34;99890.69;1832186;75;21557;-15
2021/03/26 08:12:44;;;;;;;16.25;10.43;;;;;;;23.05;22.59;99891.36;1733386;76;22011;-14
2021/03/26 08:15:28;;;;;;;;;;;;;;;23.05;22.74;99894.05;1783944;78;21227;-15
2021/03/26 08:18:32;;;;;;;21.55;10.32;;;;;;;23.09;23.31;99898.24;1805151;78;20268;-15
2021/03/26 08:21:29;;;;;;;17.42;9.78;;;;;;;23.18;23.62;99891.64;1841624;76;21519;-16
2021/03/26 08:24:34;;;;;;;14.58;9.63;;;;;;;23.31;23.95;99900.03;1835883;75;22216;-15
2021/03/26 08:27:22;;;;;;;16.07;9.60;;;;;;;23.42;24.16;99900.01;1851129;75;24114;-19
2021/03/26 08:30:19;;;;;;;16.35;9.23;;;;;;;23.54;24.36;99894.11;1847470;75;21183;-15
2021/03/26 08:33:38;;;;;;;18.75;10.50;;;;;;;23.65;24.56;99891.86;1838879;75;21212;-13
2021/03/26 08:36:20;;;;;;;18.02;9.33;;;;;;;23.77;24.82;99896.70;1774514;79;21711;-15
2021/03/26 08:39:19;;;;;;;16.05;8.93;;;;;;;23.88;25.51;99899.38;1803172;76;21608;-15
2021/03/26 08:42:22;;;;;;;17.27;9.45;;;;;;;23.97;25.61;99894.55;1807602;78;21582;-16
2021/03/26 08:45:14;;;;;;;14.90;9.58;;;;;;;24.07;25.69;99892.82;1827321;76;21179;-17
2021/03/26 08:48:01;;;;;;;13.90;9.28;;;;;;;24.18;25.71;99895.08;1833370;78;21585;-15
2021/03/26 08:50:40;;;;;;;15.23;9.03;;;;;;;24.24;25.78;99892.72;1829853;78;21151;-17
2021/03/26 08:53:43;;;;;;;17.25;9.30;;;;;;;24.33;25.85;99888.38;1795116;78;22071;-18
2021/03/26 08:56:25;;;;;;;15.78;9.53;;;;;;;24.41;25.91;99893.95;1824376;77;21227;-15
2021/03/26 08:59:25;;;;;;;18.40;11.25;;;;;;;24.50;25.98;99892.80;1838187;76;21134;-16
2021/03/26 09:02:38;;;;;;;20.85;13.13;;;;;;;24.47;22.90;99896.59;1816614;78;21149;-16
2021/03/26 09:05:36;;;;;;;15.43;10.85;;;;;;;24.24;22.73;99887.81;1790141;78;21149;-15
2021/03/26 09:08:34;;;;;;;20.80;10.50;;;;;;;24.13;23.32;99899.50;1825308;78;22095;-18
2021/03/26 09:11:18;;;;;;;15.20;9.80;;;;;;;23.98;22.18;99901.65;1784992;78;21137;-17
2021/03/26 09:14:06;;;;;;;15.32;9.48;;;;;;;23.67;22.36;99901.52;1823283;78;21207;-18
2021/03/26 09:16:40;;;;;;;14.15;8.03;;;;;;;23.50;22.42;99900.70;1785763;79;21199;-15
2021/03/26 09:19:18;;;;;;;15.88;8.48;;;;;;;23.32;21.28;99907.95;1796505;78;21219;-17
2021/03/26 09:22:03;;;;;;;20.15;8.43;;;;;;;23.07;20.79;99902.39;1775853;78;21598;-15
2021/03/26 09:25:03;;;;;;;13.55;7.12;;;;;;;22.87;21.77;99909.32;1829276;76;26085;-16
2021/03/26 09:27:44;;;;;;;17.23;7.78;;;;;;;22.83;21.40;99911.90;1846152;76;21602;-18
2021/03/26 09:30:21;;;;;;;10.75;6.78;;;;;;;22.58;20.10;99908.46;1806682;78;21164;-16
2021/03/26 09:32:54;;;;;;;14.13;7.20;;;;;;;22.15;20.35;99906.39;1803395;78;21176;-15
2021/03/26 09:35:39;;;;;;;13.60;7.12;;;;;;;21.90;20.61;99904.73;1801719;78;21194;-16
2021/03/26 09:38:11;;;;;;;11.55;7.90;;;;;;;21.61;20.99;99912.28;1767460;79;21252;-15
2021/03/26 09:40:49;;;;;;;15.95;7.53;;;;;;;21.35;20.69;99913.70;1749473;78;21199;-12
2021/03/26 09:43:34;;;;;;;17.37;7.95;;;;;;;21.04;21.43;99914.57;1783092;78;21107;-12
2021/03/26 09:46:17;;;;;;;17.23;8.15;;;;;;;20.76;23.16;99915.68;1782426;78;21141;-14
2021/03/26 09:49:26;;;;;;;13.78;7.08;;;;;;;20.39;24.48;99916.42;1779525;77;21222;-13
2021/03/26 09:52:32;;;;;;;16.67;7.42;;;;;;;20.29;24.41;99922.03;1777860;78;21134;-14
2021/03/26 09:55:21;;;;;;;18.12;8.33;;;;;;;19.99;25.92;99918.30;1803354;78;21194;-14
2021/03/26 09:58:35;;;;;;;11.35;6.87;;;;;;;19.71;27.97;99925.92;1803488;78;21190;-14
2021/03/26 10:01:20;;;;;;;9.55;5.80;;;;;;;19.67;26.85;99929.27;1797449;78;21147;-15
2021/03/26 10:04:14;;;;;;;13.90;5.62;;;;;;;19.56;23.41;99932.63;1803017;77;22082;-16
2021/03/26 10:07:15;;;;;;;8.98;4.92;;;;;;;19.38;23.43;99920.48;1791654;78;21582;-15
2021/03/26 10:12:26;;;;;;;25.85;17.00;;;;;;;19.27;21.49;99939.37;1801068;78;21088;-13
2021/03/26 10:15:05;;;;;;;16.50;8.48;;;;;;;19.19;21.94;99928.83;1793239;78;21171;-16
2021/03/26 10:17:55;;;;;;;8.38;6.62;;;;;;;19.23;21.36;99923.20;1818591;76;21217;-15
2021/03/26 10:20:38;;;;;;;11.85;6.70;;;;;;;19.30;21.27;99925.84;1812837;76;21252;-15
2021/03/26 10:23:38;;;;;;;9.68;6.10;;;;;;;19.46;21.78;99927.03;1829053;76;21200;-15
2021/03/26 10:26:54;;;;;;;10.00;6.75;;;;;;;19.70;22.56;99923.70;1821290;78;21195;-14
2021/03/26 10:29:49;;;;;;;11.03;6.83;;;;;;;19.99;23.09;99915.14;1776640;78;21573;-15
2021/03/26 10:32:28;;;;;;;10.00;6.42;;;;;;;20.28;23.62;99904.77;1846368;76;21174;-14
2021/03/26 10:35:21;;;;;;;11.63;6.05;;;;;;;20.49;23.98;99913.09;1820302;76;21207;-15
2021/03/26 10:38:24;;;;;;;8.20;5.60;;;;;;;20.66;24.19;99910.16;1817060;78;21236;-16
2021/03/26 10:41:33;;;;;;;9.73;5.55;;;;;;;20.93;24.48;99905.99;1757623;79;21839;-13
2021/03/26 10:44:24;;;;;;;8.45;5.22;;;;;;;21.05;24.54;99905.59;1724532;82;21212;-14
2021/03/26 10:47:22;;;;;;;6.00;4.80;;;;;;;21.25;24.83;99903.27;1720892;81;21153;-15
2021/03/26 10:49:57;;;;;;;6.25;4.75;;;;;;;21.42;24.99;99906.92;1722983;80;21244;-16
2021/03/26 10:52:36;;;;;;;7.60;4.72;;;;;;;21.58;25.12;99905.32;1742949;82;21582;-17
2021/03/26 10:55:11;;;;;;;7.30;4.83;;;;;;;21.71;25.26;99903.93;1714095;80;21157;-16
2021/03/26 10:57:56;;;;;;;7.20;4.70;;;;;;;21.84;25.40;99899.36;1700184;82;21224;-15
2021/03/26 11:00:37;;;;;;;7.67;4.40;;;;;;;21.95;25.62;99900.38;1724994;82;21279;-16
2021/03/26 11:03:25;;;;;;;10.75;7.08;;;;;;;22.08;25.95;99906.50;1727984;82;21204;-16
2021/03/26 11:06:11;;;;;;;12.60;5.92;;;;;;;22.17;23.79;99897.74;1722193;82;21153;-13
2021/03/26 11:08:56;;;;;;;16.60;5.97;;;;;;;22.22;21.29;99902.26;1699939;82;21148;-14
2021/03/26 11:11:33;;;;;;;10.45;6.05;;;;;;;22.23;21.24;99893.75;1724675;82;21132;-15
2021/03/26 11:14:26;;;;;;;9.70;6.47;;;;;;;22.26;22.21;99890.34;1679566;82;21185;-14
2021/03/26 11:17:16;;;;;;;10.03;5.72;;;;;;;22.33;22.58;99889.91;1725617;82;21144;-16
2021/03/26 11:20:19;;;;;;;6.60;5.20;;;;;;;22.40;22.93;99889.30;1658079;84;21177;-13
2021/03/26 11:23:06;;;;;;;8.48;5.33;;;;;;;22.49;23.26;99895.76;1718935;80;21152;-13
2021/03/26 11:25:47;;;;;;;9.63;5.33;;;;;;;22.57;23.52;99893.33;1718028;82;21228;-14
2021/03/26 11:28:26;;;;;;;9.23;5.05;;;;;;;22.64;23.75;99901.75;1692231;82;21667;-13
2021/03/26 11:31:09;;;;;;;7.22;4.97;;;;;;;22.69;23.94;99890.66;1725153;82;21113;-16
2021/03/26 11:34:00;;;;;;;9.28;5.35;;;;;;;22.76;24.12;99895.90;1691754;83;21139;-13
2021/03/26 11:36:52;;;;;;;8.53;4.22;;;;;;;22.81;24.24;99894.58;1719816;82;21216;-14
2021/03/26 11:39:37;;;;;;;9.48;4.35;;;;;;;22.87;23.70;99900.43;1710864;82;21170;-14
2021/03/26 11:42:19;;;;;;;9.55;4.35;;;;;;;22.71;21.21;99899.44;1717271;83;21214;-16
2021/03/26 11:44:56;;;;;;;11.88;4.45;;;;;;;22.51;21.86;99896.52;1712500;83;21615;-14
2021/03/26 11:47:29;;;;;;;;;;;;;;;22.49;22.53;99890.40;1708056;83;21150;-13
2021/03/26 11:50:09;;;;;;;10.30;4.92;;;;;;;22.54;22.94;99888.70;1712853;82;20267;-16
2021/03/26 11:52:41;;;;;;;5.80;3.90;;;;;;;22.61;23.30;99889.45;1670382;85;21598;-13
2021/03/26 11:55:15;;;;;;;8.48;4.03;;;;;;;22.70;23.54;99893.73;1721465;82;21210;-14
2021/03/26 11:57:48;;;;;;;6.55;4.00;;;;;;;22.78;23.80;99896.66;1718536;82;21148;-12
2021/03/26 12:00:23;;;;;;;8.35;4.25;;;;;;;22.85;24.02;99887.59;1717867;82;21192;-15
2021/03/26 12:03:23;;;;;;;6.35;4.12;;;;;;;22.91;24.22;99887.96;1732763;82;21125;-13
2021/03/26 12:06:36;;;;;;;7.10;4.15;;;;;;;22.99;24.43;99884.17;1727462;82;21133;-14
2021/03/26 12:09:17;;;;;;;4.47;3.55;;;;;;;23.07;24.51;99884.94;1727053;82;21217;-13
2021/03/26 12:12:13;;;;;;;7.08;3.40;;;;;;;23.15;24.66;99885.17;1722936;82;21159;-13
2021/03/26 12:15:02;;;;;;;13.90;3.90;;;;;;;23.21;24.83;99882.47;1736874;80;21184;-13
2021/03/26 12:17:56;;;;;;;;;;;;;;;23.28;25.01;99878.30;1721820;82;21215;-13
2021/03/26 12:20:36;;;;;;;5.85;3.27;;;;;;;23.36;25.07;99877.68;1718890;82;20376;-14
2021/03/26 12:23:21;;;;;;;8.50;3.47;;;;;;;23.44;25.10;99870.34;1727139;82;21328;-16
2021/03/26 12:26:09;;;;;;;4.85;3.40;;;;;;;23.51;25.29;99862.13;1735482;82;21183;-14
2021/03/26 12:28:57;;;;;;;5.45;3.02;;;;;;;23.55;25.18;99867.59;1718658;82;21127;-14
2021/03/26 12:31:51;;;;;;;5.50;3.40;;;;;;;23.59;25.29;99870.41;1732327;82;21132;-14
2021/03/26 12:34:59;;;;;;;4.47;3.05;;;;;;;23.65;25.37;99869.03;1722455;82;21214;-13
2021/03/26 12:37:35;;;;;;;6.05;3.12;;;;;;;23.69;25.37;99861.94;1729860;82;21328;-13
2021/03/26 12:40:24;;;;;;;5.10;2.90;;;;;;;23.77;25.47;99864.45;1722357;82;21164;-13
2021/03/26 12:43:18;;;;;;;5.87;3.52;;;;;;;23.85;25.57;99857.98;1789954;78;28061;-14
2021/03/26 12:46:04;;;;;;;3.62;2.60;;;;;;;23.84;25.70;99861.64;1787581;80;21586;-14
2021/03/26 12:48:39;;;;;;;5.72;2.87;;;;;;;23.91;25.71;99859.66;1752082;81;22298;-13
2021/03/26 12:51:25;;;;;;;3.10;2.60;;;;;;;23.97;25.72;99864.99;1754772;81;21042;-14
2021/03/26 12:54:09;;;;;;;10.32;2.87;;;;;;;24.01;25.86;99853.02;1739527;81;21133;-14
2021/03/26 12:57:02;;;;;;;3.45;2.55;;;;;;;24.05;25.91;99849.06;1728648;81;21515;-13